createdAt,value
2023-05-13T00:00:08.562Z,17.90
2023-05-13T00:02:36.859Z,9.93
2023-05-13T00:05:05.155Z,13.37
2023-05-13T00:07:33.398Z,9.87
2023-05-13T00:10:02.998Z,11.17
2023-05-13T00:12:32.347Z,10.67
2023-05-13T00:15:00.501Z,10.30
2023-05-13T00:17:28.745Z,9.87
2023-05-13T00:19:56.940Z,11.93
2023-05-13T00:22:25.154Z,10.57
2023-05-13T00:24:53.364Z,11.07
2023-05-13T00:27:22.931Z,10.17
2023-05-13T00:29:51.167Z,12.80
2023-05-13T00:32:19.441Z,13.50
2023-05-13T00:34:47.711Z,13.27
2023-05-13T00:37:15.932Z,10.20
2023-05-13T00:39:44.163Z,8.60
2023-05-13T00:42:13.641Z,9.47
2023-05-13T00:44:43.356Z,11.33
2023-05-13T00:47:12.876Z,9.73
2023-05-13T00:49:41.269Z,11.90
2023-05-13T00:52:09.638Z,8.67
2023-05-13T00:54:37.850Z,10.73
2023-05-13T00:57:06.467Z,11.70
2023-05-13T00:59:34.845Z,10.87
2023-05-13T01:02:08.878Z,10.43
2023-05-13T01:04:41.070Z,8.80
2023-05-13T01:07:14.062Z,8.83
2023-05-13T01:09:48.446Z,9.87
2023-05-13T01:12:20.948Z,7.80
2023-05-13T01:14:53.899Z,9.00
2023-05-13T01:17:26.259Z,8.60
2023-05-13T01:19:55.122Z,10.50
2023-05-13T01:22:24.706Z,9.30
2023-05-13T01:24:52.937Z,12.10
2023-05-13T01:27:21.253Z,13.47
2023-05-13T01:29:50.066Z,9.13
2023-05-13T01:32:18.477Z,15.77
2023-05-13T01:34:47.560Z,8.70
2023-05-13T01:37:16.082Z,14.00
2023-05-13T01:39:45.677Z,9.37
2023-05-13T01:42:13.939Z,11.90
2023-05-13T01:44:42.165Z,9.60
2023-05-13T01:47:10.448Z,10.50
2023-05-13T01:49:38.670Z,9.13
2023-05-13T01:52:06.930Z,10.93
2023-05-13T01:54:35.534Z,8.57
2023-05-13T01:57:05.601Z,8.30
2023-05-13T01:59:33.810Z,8.07
2023-05-13T02:02:02.115Z,9.60
2023-05-13T02:04:30.409Z,8.97
2023-05-13T02:06:58.628Z,13.43
2023-05-13T02:09:27.009Z,11.77
2023-05-13T02:11:55.224Z,8.13
2023-05-13T02:14:24.748Z,9.67
2023-05-13T02:16:53.098Z,14.60
2023-05-13T02:19:21.640Z,10.50
2023-05-13T02:21:49.874Z,12.00
2023-05-13T02:24:18.358Z,8.23
2023-05-13T02:26:46.661Z,9.33
2023-05-13T02:29:15.773Z,11.30
2023-05-13T02:31:45.428Z,9.83
2023-05-13T02:34:14.694Z,10.97
2023-05-13T02:36:42.863Z,13.00
2023-05-13T02:39:11.031Z,20.83
2023-05-13T02:41:39.208Z,8.53
2023-05-13T02:44:07.658Z,10.43
2023-05-13T02:46:35.925Z,12.07
2023-05-13T02:49:05.705Z,10.77
2023-05-13T02:51:33.888Z,13.53
2023-05-13T02:54:02.098Z,9.67
2023-05-13T02:56:30.281Z,9.77
2023-05-13T02:58:58.547Z,11.23
2023-05-13T03:01:27.134Z,11.30
2023-05-13T03:03:55.452Z,10.17
2023-05-13T03:06:25.069Z,10.67
2023-05-13T03:08:53.256Z,11.27
2023-05-13T03:11:21.689Z,10.13
2023-05-13T03:13:49.917Z,11.83
2023-05-13T03:16:18.225Z,8.73
2023-05-13T03:18:46.487Z,14.00
2023-05-13T03:21:14.783Z,11.80
2023-05-13T03:23:44.351Z,9.17
2023-05-13T03:26:12.541Z,10.37
2023-05-13T03:28:40.714Z,12.07
2023-05-13T03:31:09.049Z,10.07
2023-05-13T03:33:37.337Z,11.10
2023-05-13T03:36:05.935Z,9.20
2023-05-13T03:38:34.176Z,11.67
2023-05-13T03:41:03.768Z,8.53
2023-05-13T03:43:32.568Z,11.20
2023-05-13T03:46:00.877Z,10.50
2023-05-13T03:48:29.150Z,10.17
2023-05-13T03:50:57.356Z,10.90
2023-05-13T03:53:25.710Z,9.90
2023-05-13T03:55:54.939Z,12.03
2023-05-13T03:58:24.528Z,9.47
2023-05-13T04:00:52.702Z,12.87
2023-05-13T04:03:21.290Z,12.63
2023-05-13T04:05:49.850Z,9.67
2023-05-13T04:08:18.342Z,10.90
2023-05-13T04:10:46.604Z,10.23
2023-05-13T04:13:14.804Z,14.50
2023-05-13T04:15:44.370Z,12.10
2023-05-13T04:18:12.875Z,12.90
2023-05-13T04:20:41.076Z,9.63
2023-05-13T04:23:10.361Z,11.50
2023-05-13T04:25:38.663Z,10.83
2023-05-13T04:28:07.286Z,10.23
2023-05-13T04:30:36.149Z,12.83
2023-05-13T04:33:06.728Z,11.77
2023-05-13T04:35:35.105Z,13.30
2023-05-13T04:38:03.743Z,18.70
2023-05-13T04:40:32.137Z,14.40
2023-05-13T04:43:00.375Z,17.10
2023-05-13T04:45:28.648Z,15.47
2023-05-13T04:47:58.325Z,16.27
2023-05-13T04:50:28.244Z,14.53
2023-05-13T04:52:56.920Z,14.90
2023-05-13T04:55:27.581Z,17.33
2023-05-13T04:57:56.062Z,14.90
2023-05-13T05:00:24.551Z,20.03
2023-05-13T05:02:52.864Z,17.57
2023-05-13T05:05:21.363Z,17.97
2023-05-13T05:07:50.894Z,18.53
2023-05-13T05:10:19.299Z,19.30
2023-05-13T05:12:47.645Z,16.17
2023-05-13T05:15:16.477Z,19.30
2023-05-13T05:17:44.807Z,18.40
2023-05-13T05:20:13.961Z,23.47
2023-05-13T05:22:42.746Z,21.17
2023-05-13T05:25:12.566Z,19.87
2023-05-13T05:27:40.761Z,21.80
2023-05-13T05:30:10.619Z,21.73
2023-05-13T05:32:39.157Z,24.70
2023-05-13T05:35:07.870Z,22.20
2023-05-13T05:37:36.557Z,23.40
2023-05-13T05:40:04.916Z,19.93
2023-05-13T05:42:34.547Z,24.40
2023-05-13T05:45:02.730Z,27.03
2023-05-13T05:47:31.049Z,23.47
2023-05-13T05:49:59.306Z,31.70
2023-05-13T05:52:27.730Z,19.90
2023-05-13T05:54:55.907Z,34.20
2023-05-13T05:57:24.464Z,19.43
2023-05-13T05:59:53.984Z,12.33
2023-05-13T06:02:22.234Z,24.50
2023-05-13T06:04:50.673Z,16.60
2023-05-13T06:07:19.033Z,13.97
2023-05-13T06:09:47.279Z,26.90
2023-05-13T06:12:15.597Z,15.47
2023-05-13T06:14:43.806Z,18.17
2023-05-13T06:17:14.773Z,17.77
2023-05-13T06:19:43.494Z,14.20
2023-05-13T06:22:11.771Z,28.03
2023-05-13T06:24:42.633Z,37.23
2023-05-13T06:27:11.636Z,30.67
2023-05-13T06:29:39.936Z,27.10
2023-05-13T06:32:08.563Z,12.27
2023-05-13T06:34:40.026Z,26.90
2023-05-13T06:37:08.529Z,26.50
2023-05-13T06:39:36.788Z,26.97
2023-05-13T06:42:05.147Z,34.57
2023-05-13T06:44:33.664Z,23.40
2023-05-13T06:47:02.897Z,26.70
2023-05-13T06:49:31.637Z,25.27
2023-05-13T06:52:01.234Z,31.40
2023-05-13T06:54:33.566Z,32.23
2023-05-13T06:57:01.816Z,16.27
2023-05-13T06:59:30.315Z,16.80
2023-05-13T07:01:58.563Z,17.40
2023-05-13T07:04:26.790Z,27.70
2023-05-13T07:06:56.280Z,22.10
2023-05-13T07:09:38.480Z,16.30
2023-05-13T07:12:10.465Z,15.00
2023-05-13T07:14:38.722Z,17.73
2023-05-13T07:17:07.087Z,16.80
2023-05-13T07:19:35.368Z,17.77
2023-05-13T07:22:03.634Z,28.00
2023-05-13T07:24:31.832Z,18.83
2023-05-13T07:27:01.310Z,24.57
2023-05-13T07:29:32.198Z,18.57
2023-05-13T07:32:04.592Z,27.47
2023-05-13T07:34:33.399Z,18.20
2023-05-13T07:37:01.915Z,20.93
2023-05-13T07:39:30.637Z,18.30
2023-05-13T07:41:58.920Z,18.57
2023-05-13T07:44:27.265Z,25.00
2023-05-13T07:46:56.804Z,24.33
2023-05-13T07:49:27.090Z,17.20
2023-05-13T07:51:55.399Z,18.27
2023-05-13T07:54:23.683Z,25.30
2023-05-13T07:56:52.029Z,23.73
2023-05-13T07:59:21.262Z,21.33
2023-05-13T08:01:49.601Z,18.77
2023-05-13T08:04:19.482Z,18.63
2023-05-13T08:06:58.839Z,20.43
2023-05-13T08:09:27.048Z,17.70
2023-05-13T08:11:55.546Z,14.93
2023-05-13T08:14:24.113Z,15.80
2023-05-13T08:16:53.067Z,18.47
2023-05-13T08:19:22.713Z,19.67
2023-05-13T08:21:51.228Z,21.00
2023-05-13T08:24:19.487Z,19.97
2023-05-13T08:26:47.833Z,18.90
2023-05-13T08:29:16.151Z,19.63
2023-05-13T08:31:44.526Z,19.93
2023-05-13T08:34:12.838Z,19.60
2023-05-13T08:36:42.376Z,16.07
2023-05-13T08:39:10.929Z,20.40
2023-05-13T08:41:39.511Z,19.17
2023-05-13T08:44:08.677Z,19.30
2023-05-13T08:46:39.547Z,19.93
2023-05-13T08:49:10.056Z,18.37
2023-05-13T08:51:38.288Z,14.80
2023-05-13T08:54:08.646Z,21.33
2023-05-13T08:56:37.192Z,24.47
2023-05-13T08:59:05.427Z,44.43
2023-05-13T09:01:33.983Z,19.00
2023-05-13T09:04:03.475Z,17.43
2023-05-13T09:06:32.344Z,17.80
2023-05-13T09:09:00.752Z,23.00
2023-05-13T09:11:30.579Z,20.27
2023-05-13T09:13:59.531Z,17.87
2023-05-13T09:16:29.379Z,15.63
2023-05-13T09:18:59.670Z,13.43
2023-05-13T09:21:28.697Z,19.90
2023-05-13T09:24:11.349Z,21.30
2023-05-13T09:26:41.672Z,17.30
2023-05-13T09:29:16.608Z,16.40
2023-05-13T09:31:45.127Z,17.50
2023-05-13T09:34:13.476Z,15.23
2023-05-13T09:36:42.980Z,14.90
2023-05-13T09:39:11.308Z,17.17
2023-05-13T09:41:42.076Z,16.80
2023-05-13T09:44:12.631Z,15.70
2023-05-13T09:46:41.008Z,11.33
2023-05-13T09:49:09.335Z,21.70
2023-05-13T09:51:37.592Z,11.20
2023-05-13T09:54:06.331Z,16.87
2023-05-13T09:56:35.076Z,14.03
2023-05-13T09:59:04.962Z,11.97
2023-05-13T10:01:33.215Z,16.33
2023-05-13T10:04:01.574Z,16.30
2023-05-13T10:06:31.396Z,15.03
2023-05-13T10:09:01.335Z,12.97
2023-05-13T10:11:29.828Z,12.77
2023-05-13T10:14:03.013Z,13.13
2023-05-13T10:16:33.886Z,18.10
2023-05-13T10:19:04.039Z,17.43
2023-05-13T10:21:32.565Z,10.70
2023-05-13T10:24:01.890Z,12.23
2023-05-13T10:26:30.937Z,12.87
2023-05-13T10:28:59.433Z,16.33
2023-05-13T10:31:28.273Z,12.17
2023-05-13T10:33:57.950Z,11.57
2023-05-13T10:36:43.895Z,8.97
2023-05-13T10:39:19.304Z,13.93
2023-05-13T10:42:17.279Z,13.50
2023-05-13T10:44:45.538Z,12.00
2023-05-13T10:47:13.904Z,14.70
2023-05-13T10:49:51.868Z,9.67
2023-05-13T10:52:20.390Z,11.57
2023-05-13T10:54:59.343Z,12.20
2023-05-13T10:57:29.925Z,11.27
2023-05-13T11:00:25.134Z,12.37
2023-05-13T11:02:53.581Z,14.20
2023-05-13T11:05:23.601Z,10.73
2023-05-13T11:07:57.239Z,11.73
2023-05-13T11:10:27.453Z,10.27
2023-05-13T11:13:09.196Z,11.90
2023-05-13T11:15:46.466Z,11.73
2023-05-13T11:18:15.093Z,11.13
2023-05-13T11:20:52.503Z,9.77
2023-05-13T11:23:21.787Z,10.63
2023-05-13T11:26:12.330Z,10.77
2023-05-13T11:28:57.146Z,9.87
2023-05-13T11:31:25.761Z,10.17
2023-05-13T11:34:15.084Z,11.67
2023-05-13T11:36:46.148Z,7.70
2023-05-13T11:39:18.069Z,10.50
2023-05-13T11:41:48.366Z,7.20
2023-05-13T11:44:17.439Z,6.77
2023-05-13T11:46:52.585Z,9.47
2023-05-13T11:49:33.454Z,7.50
2023-05-13T11:52:03.363Z,8.63
2023-05-13T11:54:31.673Z,12.00
2023-05-13T11:56:59.952Z,12.20
2023-05-13T11:59:35.849Z,7.77
2023-05-13T12:02:10.230Z,9.57
2023-05-13T12:04:38.520Z,9.53
2023-05-13T12:07:08.225Z,6.47
2023-05-13T12:09:36.471Z,7.67
2023-05-13T12:12:05.004Z,10.90
2023-05-13T12:14:33.547Z,9.77
2023-05-13T12:17:01.871Z,8.50
2023-05-13T12:19:30.362Z,10.43
2023-05-13T12:21:58.591Z,9.63
2023-05-13T12:24:28.813Z,7.63
2023-05-13T12:27:06.176Z,11.97
2023-05-13T12:29:41.263Z,8.57
2023-05-13T12:32:12.489Z,6.10
2023-05-13T12:34:40.735Z,5.70
2023-05-13T12:37:12.688Z,8.00
2023-05-13T12:39:42.705Z,11.70
2023-05-13T12:42:17.470Z,12.17
2023-05-13T12:44:46.252Z,14.67
2023-05-13T12:47:15.768Z,10.23
2023-05-13T12:49:53.775Z,10.93
2023-05-13T12:52:22.373Z,7.70
2023-05-13T12:54:51.974Z,9.10
2023-05-13T12:57:21.121Z,5.43
2023-05-13T12:59:49.375Z,6.70
2023-05-13T13:02:17.568Z,4.30
2023-05-13T13:04:45.897Z,4.63
2023-05-13T13:07:14.609Z,7.07
2023-05-13T13:09:43.052Z,5.67
2023-05-13T13:12:12.674Z,5.10
2023-05-13T13:14:41.118Z,6.07
2023-05-13T13:17:09.315Z,5.80
2023-05-13T13:19:37.771Z,5.10
2023-05-13T13:22:06.239Z,6.57
2023-05-13T13:24:35.741Z,8.70
2023-05-13T13:27:03.972Z,22.43
2023-05-13T13:29:33.586Z,5.83
2023-05-13T13:32:01.908Z,5.30
2023-05-13T13:34:30.226Z,5.03
2023-05-13T13:36:59.414Z,5.33
2023-05-13T13:39:27.878Z,4.30
2023-05-13T13:41:57.250Z,5.23
2023-05-13T13:44:26.827Z,9.20
2023-05-13T13:46:57.897Z,6.30
2023-05-13T13:49:26.124Z,4.10
2023-05-13T13:51:54.440Z,4.60
2023-05-13T13:54:23.190Z,7.30
2023-05-13T13:56:51.497Z,5.80
2023-05-13T13:59:19.930Z,5.97
2023-05-13T14:01:48.298Z,4.53
2023-05-13T14:04:20.151Z,6.00
2023-05-13T14:06:48.746Z,5.13
2023-05-13T14:09:17.157Z,8.03
2023-05-13T14:11:45.409Z,5.10
2023-05-13T14:14:13.630Z,5.30
2023-05-13T14:16:41.956Z,5.07
2023-05-13T14:19:10.223Z,4.90
2023-05-13T14:21:39.837Z,5.60
2023-05-13T14:24:11.976Z,6.40
2023-05-13T14:26:40.357Z,5.90
2023-05-13T14:29:08.699Z,4.37
2023-05-13T14:31:37.289Z,5.73
2023-05-13T14:34:07.645Z,4.47
2023-05-13T14:36:36.308Z,5.00
2023-05-13T14:39:05.900Z,8.60
2023-05-13T14:41:34.188Z,6.03
2023-05-13T14:44:02.426Z,6.80
2023-05-13T14:46:33.539Z,4.83
2023-05-13T14:49:01.769Z,4.30
2023-05-13T14:51:30.037Z,4.83
2023-05-13T14:53:58.302Z,7.07
2023-05-13T14:56:28.007Z,4.90
2023-05-13T14:58:56.260Z,5.40
2023-05-13T15:01:24.599Z,6.03
2023-05-13T15:03:52.995Z,5.87
2023-05-13T15:06:21.294Z,4.47
2023-05-13T15:08:49.683Z,6.47
2023-05-13T15:11:17.874Z,6.27
2023-05-13T15:13:47.442Z,5.37
2023-05-13T15:16:16.345Z,4.73
2023-05-13T15:18:44.910Z,6.23
2023-05-13T15:21:13.219Z,3.87
2023-05-13T15:23:41.485Z,4.60
2023-05-13T15:26:09.736Z,5.40
2023-05-13T15:28:37.988Z,5.13
2023-05-13T15:31:07.740Z,9.03
2023-05-13T15:33:36.075Z,4.60
2023-05-13T15:36:05.652Z,10.13
2023-05-13T15:38:33.885Z,4.23
2023-05-13T15:41:04.052Z,8.97
2023-05-13T15:43:32.481Z,7.93
2023-05-13T15:46:00.788Z,5.30
2023-05-13T15:48:30.699Z,7.87
2023-05-13T15:50:58.961Z,4.93
2023-05-13T15:53:27.254Z,6.57
2023-05-13T15:55:55.471Z,5.50
2023-05-13T15:58:23.745Z,5.77
2023-05-13T16:00:52.187Z,6.60
2023-05-13T16:03:20.383Z,8.80
2023-05-13T16:05:50.065Z,7.87
2023-05-13T16:08:18.627Z,4.50
2023-05-13T16:10:46.996Z,4.73
2023-05-13T16:13:15.150Z,6.70
2023-05-13T16:15:43.836Z,7.43
2023-05-13T16:18:12.109Z,6.57
2023-05-13T16:20:40.769Z,4.90
2023-05-13T16:23:10.348Z,6.30
2023-05-13T16:25:39.439Z,7.77
2023-05-13T16:28:07.689Z,5.00
2023-05-13T16:30:36.684Z,7.07
2023-05-13T16:33:04.973Z,6.40
2023-05-13T16:35:33.266Z,7.97
2023-05-13T16:38:01.584Z,10.20
2023-05-13T16:40:31.272Z,5.97
2023-05-13T16:43:02.570Z,5.60
2023-05-13T16:45:32.161Z,4.73
2023-05-13T16:48:00.453Z,6.00
2023-05-13T16:50:28.883Z,6.10
2023-05-13T16:52:57.024Z,5.37
2023-05-13T16:55:25.986Z,7.13
2023-05-13T16:57:55.562Z,4.57
2023-05-13T17:00:24.068Z,7.80
2023-05-13T17:02:52.583Z,4.97
2023-05-13T17:05:20.833Z,5.57
2023-05-13T17:07:49.060Z,4.10
2023-05-13T17:10:17.281Z,5.73
2023-05-13T17:12:45.479Z,4.37
2023-05-13T17:15:15.051Z,5.60
2023-05-13T17:17:43.288Z,6.23
2023-05-13T17:20:12.197Z,5.13
2023-05-13T17:22:44.461Z,5.83
2023-05-13T17:25:12.667Z,5.63
2023-05-13T17:27:40.897Z,5.23
2023-05-13T17:30:10.308Z,13.13
2023-05-13T17:32:39.894Z,6.10
2023-05-13T17:35:08.639Z,7.50
2023-05-13T17:37:36.803Z,4.07
2023-05-13T17:40:07.026Z,3.33
2023-05-13T17:42:35.246Z,7.30
2023-05-13T17:45:03.698Z,6.90
2023-05-13T17:47:32.058Z,3.17
2023-05-13T17:50:01.617Z,4.47
2023-05-13T17:52:29.779Z,4.20
2023-05-13T17:54:58.014Z,6.37
2023-05-13T17:57:26.190Z,6.73
2023-05-13T17:59:54.438Z,4.17
2023-05-13T18:02:22.745Z,5.30
2023-05-13T18:04:52.075Z,4.13
2023-05-13T18:07:21.645Z,5.47
2023-05-13T18:09:50.080Z,5.17
2023-05-13T18:12:18.616Z,5.20
2023-05-13T18:14:46.998Z,5.30
2023-05-13T18:17:16.205Z,5.10
2023-05-13T18:19:44.454Z,4.40
2023-05-13T18:22:12.894Z,5.50
2023-05-13T18:24:44.450Z,4.90
2023-05-13T18:27:12.652Z,5.47
2023-05-13T18:29:40.942Z,4.57
2023-05-13T18:32:09.201Z,5.27
2023-05-13T18:34:38.309Z,4.00
2023-05-13T18:37:06.789Z,8.30
2023-05-13T18:39:35.077Z,4.17
2023-05-13T18:42:04.704Z,6.53
2023-05-13T18:44:33.019Z,4.50
2023-05-13T18:47:01.543Z,5.30
2023-05-13T18:49:29.873Z,4.80
2023-05-13T18:51:58.109Z,4.37
2023-05-13T18:54:27.925Z,6.67
2023-05-13T18:56:56.693Z,7.30
2023-05-13T18:59:26.429Z,5.60
2023-05-13T19:01:54.954Z,5.87
2023-05-13T19:04:24.602Z,5.00
2023-05-13T19:06:53.855Z,6.90
2023-05-13T19:09:22.498Z,7.53
2023-05-13T19:11:50.769Z,5.23
2023-05-13T19:14:18.959Z,5.10
2023-05-13T19:16:48.808Z,6.00
2023-05-13T19:19:17.236Z,6.13
2023-05-13T19:21:45.477Z,6.17
2023-05-13T19:24:13.710Z,7.13
2023-05-13T19:26:41.970Z,6.90
2023-05-13T19:29:10.157Z,7.93
2023-05-13T19:31:38.406Z,8.37
2023-05-13T19:34:08.188Z,8.00
2023-05-13T19:36:36.447Z,8.20
2023-05-13T19:39:04.773Z,7.03
2023-05-13T19:41:34.482Z,7.87
2023-05-13T19:44:02.836Z,6.40
2023-05-13T19:46:31.214Z,7.17
2023-05-13T19:48:59.476Z,6.63
2023-05-13T19:51:29.080Z,7.07
2023-05-13T19:53:57.460Z,8.40
2023-05-13T19:56:25.895Z,13.00
2023-05-13T19:58:54.185Z,8.63
2023-05-13T20:01:24.108Z,8.47
2023-05-13T20:03:53.062Z,6.67
2023-05-13T20:06:29.606Z,6.53
2023-05-13T20:08:58.471Z,8.40
2023-05-13T20:11:26.826Z,7.20
2023-05-13T20:13:55.697Z,6.60
2023-05-13T20:16:23.908Z,7.80
2023-05-13T20:18:52.351Z,7.70
2023-05-13T20:21:20.815Z,6.83
2023-05-13T20:23:50.482Z,8.60
2023-05-13T20:26:18.846Z,8.07
2023-05-13T20:28:47.760Z,7.93
2023-05-13T20:31:16.281Z,8.37
2023-05-13T20:33:44.906Z,10.57
2023-05-13T20:36:13.120Z,8.83
2023-05-13T20:38:41.295Z,10.30
2023-05-13T20:41:11.237Z,11.97
2023-05-13T20:43:39.406Z,9.07
2023-05-13T20:46:08.058Z,9.40
2023-05-13T20:48:36.524Z,7.13
2023-05-13T20:51:05.614Z,8.33
2023-05-13T20:53:33.931Z,11.47
2023-05-13T20:56:02.831Z,8.27
2023-05-13T20:58:33.540Z,10.43
2023-05-13T21:01:01.841Z,8.60
2023-05-13T21:03:30.117Z,7.23
2023-05-13T21:05:58.397Z,16.13
2023-05-13T21:08:26.678Z,9.63
2023-05-13T21:10:56.291Z,7.90
2023-05-13T21:13:25.873Z,8.57
2023-05-13T21:15:55.816Z,8.10
2023-05-13T21:18:24.547Z,11.10
2023-05-13T21:20:52.929Z,8.30
2023-05-13T21:23:21.164Z,8.30
2023-05-13T21:25:49.411Z,8.80
2023-05-13T21:28:19.088Z,7.47
2023-05-13T21:30:47.418Z,11.37
2023-05-13T21:33:17.085Z,8.30
2023-05-13T21:35:45.540Z,8.87
2023-05-13T21:38:14.792Z,9.90
2023-05-13T21:40:43.336Z,12.30
2023-05-13T21:43:11.607Z,9.10
2023-05-13T21:45:39.905Z,11.67
2023-05-13T21:48:08.389Z,8.47
2023-05-13T21:50:38.115Z,8.43
2023-05-13T21:53:06.270Z,9.57
2023-05-13T21:55:35.012Z,8.20
2023-05-13T21:58:03.714Z,7.77
2023-05-13T22:00:32.076Z,8.63
2023-05-13T22:03:01.577Z,8.27
2023-05-13T22:05:29.914Z,6.60
2023-05-13T22:08:01.710Z,7.27
2023-05-13T22:10:29.959Z,7.63
2023-05-13T22:12:58.128Z,11.37
2023-05-13T22:15:26.319Z,7.07
2023-05-13T22:17:54.662Z,9.90
2023-05-13T22:20:23.332Z,8.37
2023-05-13T22:22:51.742Z,7.40
2023-05-13T22:25:21.322Z,8.23
2023-05-13T22:27:49.764Z,7.43
2023-05-13T22:30:18.062Z,8.00
2023-05-13T22:32:46.374Z,9.17
2023-05-13T22:35:14.574Z,8.80
2023-05-13T22:37:42.804Z,8.80
2023-05-13T22:40:11.512Z,5.90
2023-05-13T22:42:41.134Z,8.00
2023-05-13T22:45:09.840Z,10.07
2023-05-13T22:47:38.103Z,15.20
2023-05-13T22:50:06.681Z,11.30
2023-05-13T22:52:34.853Z,13.23
2023-05-13T22:55:03.118Z,11.40
2023-05-13T22:57:31.322Z,12.20
2023-05-13T23:00:00.907Z,13.63
2023-05-13T23:02:29.135Z,12.30
2023-05-13T23:04:57.420Z,17.63
2023-05-13T23:07:25.598Z,12.00
2023-05-13T23:09:53.837Z,16.40
2023-05-13T23:12:22.251Z,13.33
2023-05-13T23:14:50.464Z,15.03
2023-05-13T23:17:20.054Z,16.80
2023-05-13T23:19:48.254Z,15.33
2023-05-13T23:22:16.606Z,15.20
2023-05-13T23:24:44.859Z,15.50
2023-05-13T23:27:13.024Z,17.37
2023-05-13T23:29:41.190Z,14.53
2023-05-13T23:32:09.720Z,15.13
2023-05-13T23:34:39.323Z,14.00
2023-05-13T23:37:07.586Z,15.67
2023-05-13T23:39:35.901Z,16.63
2023-05-13T23:42:04.171Z,13.10
2023-05-13T23:44:32.355Z,16.00
2023-05-13T23:47:00.644Z,12.60
2023-05-13T23:49:28.827Z,17.53
2023-05-13T23:51:58.393Z,13.20
2023-05-13T23:54:26.609Z,12.50
2023-05-13T23:56:54.964Z,13.20
2023-05-13T23:59:23.143Z,14.63
